Time;durP1;ratioP1;P1;durP2;ratioP2;P2;SDS_P1;SDS_P2;PMS_P1;PMS_P2;Temp;Humidity;BMP_temperature;BMP_pressure;BME280_temperature;BME280_humidity;BME280_pressure;Samples;Min_cycle;Max_cycle;Signal;HPM_P1;HPM_P2
2023/11/22 00:02:17;;;;;;;0.40;0.40;;;;;;;4.67;100.00;100079.88;5092980;28;20501;-59
2023/11/22 00:04:45;;;;;;;0.40;0.40;;;;;;;4.47;100.00;100075.09;5093196;28;20127;-59
2023/11/22 00:07:12;;;;;;;0.40;0.40;;;;;;;4.50;100.00;100082.69;5089051;28;20050;-59
2023/11/22 00:09:39;;;;;;;0.50;0.50;;;;;;;4.44;100.00;100085.25;5094399;28;20043;-59
2023/11/22 00:12:08;;;;;;;0.40;0.40;;;;;;;4.46;100.00;100086.69;5087619;28;20047;-59
2023/11/22 00:14:37;;;;;;;0.47;0.47;;;;;;;4.49;100.00;100096.13;5093662;28;20052;-59
2023/11/22 00:17:04;;;;;;;0.40;0.40;;;;;;;4.42;100.00;100093.41;5086057;28;20458;-59
2023/11/22 00:19:32;;;;;;;0.40;0.40;;;;;;;4.50;100.00;100100.47;5083211;28;20814;-59
2023/11/22 00:21:59;;;;;;;0.40;0.40;;;;;;;4.41;100.00;100098.88;5090282;28;20156;-59
2023/11/22 00:24:26;;;;;;;0.43;0.43;;;;;;;4.32;100.00;100108.75;5093229;28;20040;-59
2023/11/22 00:26:53;;;;;;;0.40;0.40;;;;;;;4.36;100.00;100115.34;5089043;28;20039;-59
2023/11/22 00:29:21;;;;;;;0.40;0.40;;;;;;;4.31;100.00;100117.72;5097716;28;20061;-59
2023/11/22 00:31:49;;;;;;;0.30;0.30;;;;;;;4.22;100.00;100124.94;5086887;28;20040;-59
2023/11/22 00:34:17;;;;;;;0.38;0.38;;;;;;;4.23;100.00;100120.44;5090695;28;20079;-59
2023/11/22 00:36:44;;;;;;;0.50;0.50;;;;;;;4.28;100.00;100118.06;5093259;28;20245;-59
2023/11/22 00:39:12;;;;;;;0.35;0.35;;;;;;;4.35;100.00;100118.19;5094747;28;20136;-59
2023/11/22 00:41:41;;;;;;;0.47;0.47;;;;;;;4.38;100.00;100116.00;5103106;27;20048;-59
2023/11/22 00:44:08;;;;;;;0.50;0.50;;;;;;;4.36;100.00;100118.00;5087629;28;20541;-59
2023/11/22 00:46:37;;;;;;;0.40;0.40;;;;;;;4.40;100.00;100121.13;5095690;28;20615;-59
2023/11/22 00:49:04;;;;;;;0.30;0.30;;;;;;;4.38;100.00;100118.66;5094037;28;20048;-59
2023/11/22 00:51:31;;;;;;;0.40;0.40;;;;;;;4.29;100.00;100112.59;5108856;28;20105;-59
2023/11/22 00:53:59;;;;;;;0.50;0.50;;;;;;;4.26;100.00;100115.59;5082388;28;20051;-59
2023/11/22 00:56:26;;;;;;;0.50;0.50;;;;;;;4.31;100.00;100123.03;5109599;27;20458;-59
2023/11/22 00:58:53;;;;;;;0.47;0.47;;;;;;;4.41;100.00;100128.91;5094856;28;20039;-59
2023/11/22 01:01:20;;;;;;;0.40;0.40;;;;;;;4.29;100.00;100131.19;5094969;28;20131;-59
2023/11/22 01:03:48;;;;;;;0.47;0.47;;;;;;;4.53;100.00;100142.56;5087539;28;20078;-60
2023/11/22 01:06:17;;;;;;;0.52;0.52;;;;;;;4.46;100.00;100142.44;5084416;28;20036;-59
2023/11/22 01:08:44;;;;;;;0.40;0.40;;;;;;;4.37;100.00;100143.56;5084121;28;20044;-59
2023/11/22 01:11:12;;;;;;;0.40;0.40;;;;;;;4.39;100.00;100148.66;5091359;28;20043;-59
2023/11/22 01:13:40;;;;;;;0.30;0.30;;;;;;;4.38;100.00;100155.81;5100219;27;20051;-59
2023/11/22 01:16:08;;;;;;;0.40;0.40;;;;;;;4.30;100.00;100154.06;5094599;28;20040;-59
2023/11/22 01:18:35;;;;;;;0.40;0.40;;;;;;;4.37;100.00;100148.00;5091089;28;20052;-59
2023/11/22 01:21:04;;;;;;;0.40;0.40;;;;;;;4.24;100.00;100143.31;5092674;28;20136;-59
2023/11/22 01:23:31;;;;;;;0.55;0.55;;;;;;;4.17;100.00;100145.03;5091425;28;20679;-59
2023/11/22 01:25:59;;;;;;;0.40;0.40;;;;;;;4.25;100.00;100137.03;5090138;28;20044;-58
2023/11/22 01:28:27;;;;;;;0.35;0.35;;;;;;;4.15;100.00;100139.09;5084544;28;20462;-58
2023/11/22 01:30:54;;;;;;;0.50;0.50;;;;;;;4.00;100.00;100139.88;5082720;28;20166;-59
2023/11/22 01:33:21;;;;;;;0.50;0.50;;;;;;;4.11;100.00;100144.72;5096379;28;20124;-58
2023/11/22 01:35:49;;;;;;;0.50;0.50;;;;;;;4.06;100.00;100144.44;5089266;28;20398;-59
2023/11/22 01:38:19;;;;;;;0.43;0.43;;;;;;;4.03;100.00;100149.28;5087953;28;20048;-58
2023/11/22 01:40:46;;;;;;;0.40;0.40;;;;;;;4.11;100.00;100150.03;5091216;28;20059;-58
2023/11/22 01:43:14;;;;;;;0.50;0.50;;;;;;;4.18;100.00;100159.97;5096141;28;20190;-58
2023/11/22 01:45:42;;;;;;;0.50;0.50;;;;;;;3.94;100.00;100153.81;5097326;28;20055;-59
2023/11/22 01:48:10;;;;;;;0.43;0.43;;;;;;;4.02;100.00;100155.59;5085693;28;20144;-58
2023/11/22 01:50:37;;;;;;;0.50;0.50;;;;;;;4.19;100.00;100156.28;5089504;28;20055;-58
2023/11/22 01:53:04;;;;;;;0.40;0.40;;;;;;;4.22;100.00;100153.28;5083564;28;20048;-58
2023/11/22 01:55:33;;;;;;;0.40;0.40;;;;;;;4.17;100.00;100150.34;5093984;28;20048;-58
2023/11/22 01:58:01;;;;;;;0.50;0.50;;;;;;;4.05;100.00;100145.47;5083385;28;20040;-59
2023/11/22 02:00:29;;;;;;;0.40;0.40;;;;;;;3.97;100.00;100142.88;5105966;27;20050;-59
2023/11/22 02:02:56;;;;;;;0.50;0.50;;;;;;;4.16;100.00;100143.38;5087145;28;20046;-58
2023/11/22 02:05:23;;;;;;;0.50;0.50;;;;;;;4.00;100.00;100144.34;5116596;27;20469;-58
2023/11/22 02:07:50;;;;;;;0.43;0.43;;;;;;;4.01;100.00;100153.94;5092795;28;20039;-58
2023/11/22 02:10:17;;;;;;;0.50;0.50;;;;;;;3.97;100.00;100153.50;5093989;28;20674;-59
2023/11/22 02:12:46;;;;;;;0.30;0.30;;;;;;;4.04;100.00;100157.09;5088871;28;20051;-58
2023/11/22 02:15:13;;;;;;;0.50;0.50;;;;;;;4.05;100.00;100158.72;5093154;28;20422;-58
2023/11/22 02:17:40;;;;;;;0.50;0.50;;;;;;;4.00;100.00;100152.31;5079104;28;20117;-59
2023/11/22 02:20:10;;;;;;;0.50;0.50;;;;;;;4.08;100.00;100168.16;5094238;28;20089;-58
2023/11/22 02:22:44;;;;;;;0.52;0.52;;;;;;;3.99;100.00;100159.41;5087670;28;20036;-60
2023/11/22 02:25:12;;;;;;;0.40;0.40;;;;;;;3.95;100.00;100166.09;5097258;28;20505;-58
2023/11/22 02:27:40;;;;;;;0.50;0.50;;;;;;;3.98;100.00;100165.75;5085231;28;20085;-60
2023/11/22 02:30:08;;;;;;;0.60;0.60;;;;;;;3.93;100.00;100162.78;5092193;28;20048;-60
2023/11/22 02:32:36;;;;;;;0.40;0.40;;;;;;;3.89;100.00;100172.09;5089287;28;20123;-58
2023/11/22 02:35:07;;;;;;;0.43;0.43;;;;;;;3.83;100.00;100172.81;5089536;28;20043;-59
2023/11/22 02:37:34;;;;;;;0.30;0.30;;;;;;;3.83;100.00;100189.53;5092298;28;20044;-60
2023/11/22 02:40:04;;;;;;;0.47;0.47;;;;;;;3.88;100.00;100191.66;5096093;28;20136;-59
2023/11/22 02:42:34;;;;;;;0.40;0.40;;;;;;;3.99;100.00;100191.25;5091653;28;20050;-58
2023/11/22 02:45:01;;;;;;;0.55;0.55;;;;;;;3.86;100.00;100198.97;5090971;28;20068;-58
2023/11/22 02:47:30;;;;;;;0.57;0.57;;;;;;;3.93;100.00;100199.94;5093181;28;20454;-59
2023/11/22 02:49:57;;;;;;;0.50;0.50;;;;;;;3.85;100.00;100203.47;5098051;28;20144;-59
2023/11/22 02:52:26;;;;;;;0.50;0.50;;;;;;;3.78;100.00;100204.34;5092476;28;20150;-59
2023/11/22 02:54:53;;;;;;;0.40;0.40;;;;;;;3.89;100.00;100209.22;5089654;28;20131;-58
2023/11/22 02:57:20;;;;;;;0.40;0.40;;;;;;;3.86;100.00;100214.88;5093917;28;20044;-59
2023/11/22 02:59:48;;;;;;;0.50;0.50;;;;;;;3.85;100.00;100210.59;5088050;28;20055;-59
2023/11/22 03:02:16;;;;;;;0.50;0.50;;;;;;;3.89;100.00;100218.03;5091374;28;20142;-59
2023/11/22 03:04:43;;;;;;;0.50;0.50;;;;;;;3.82;100.00;100213.56;5093350;28;20039;-58
2023/11/22 03:07:11;;;;;;;0.60;0.60;;;;;;;3.80;100.00;100212.94;5089023;28;20181;-59
2023/11/22 03:09:38;;;;;;;0.50;0.50;;;;;;;3.98;100.00;100218.78;5095117;28;20054;-58
2023/11/22 03:12:06;;;;;;;0.40;0.40;;;;;;;3.99;100.00;100220.44;5096471;28;20489;-59
2023/11/22 03:14:33;;;;;;;0.50;0.50;;;;;;;3.89;100.00;100214.53;5085680;28;20067;-59
2023/11/22 03:17:01;;;;;;;0.45;0.45;;;;;;;3.84;100.00;100214.22;5093476;28;20325;-59
2023/11/22 03:19:28;;;;;;;0.43;0.43;;;;;;;3.90;100.00;100226.81;5091323;28;20040;-59
2023/11/22 03:21:56;;;;;;;0.45;0.45;;;;;;;3.93;100.00;100215.84;5087154;28;20417;-63
2023/11/22 03:24:23;;;;;;;0.40;0.40;;;;;;;3.82;100.00;100226.81;5091604;28;20508;-59
2023/11/22 03:26:50;;;;;;;0.50;0.50;;;;;;;3.85;100.00;100218.53;5091731;28;20087;-59
2023/11/22 03:29:18;;;;;;;0.40;0.40;;;;;;;3.90;100.00;100216.19;5094328;28;20075;-59
2023/11/22 03:31:46;;;;;;;0.50;0.50;;;;;;;3.94;100.00;100228.09;5095142;28;20115;-59
2023/11/22 03:34:16;;;;;;;0.40;0.40;;;;;;;3.91;100.00;100233.75;5096929;28;20048;-59
2023/11/22 03:36:43;;;;;;;0.40;0.40;;;;;;;3.93;100.00;100231.75;5092463;28;20054;-59
2023/11/22 03:39:11;;;;;;;0.50;0.50;;;;;;;4.04;100.00;100233.16;5094197;28;20067;-59
2023/11/22 03:41:38;;;;;;;0.40;0.40;;;;;;;4.01;100.00;100237.00;5093072;28;20760;-59
2023/11/22 03:44:08;;;;;;;0.50;0.50;;;;;;;3.95;100.00;100245.69;5090527;28;20139;-59
2023/11/22 03:46:36;;;;;;;0.40;0.40;;;;;;;4.10;100.00;100245.75;5089420;28;20052;-59
2023/11/22 03:49:04;;;;;;;0.45;0.45;;;;;;;3.93;100.00;100250.31;5093394;27;20048;-58
2023/11/22 03:51:35;;;;;;;0.40;0.40;;;;;;;3.78;100.00;100244.94;5092273;28;20043;-58
2023/11/22 03:54:03;;;;;;;0.40;0.40;;;;;;;3.94;100.00;100246.66;5093171;28;20756;-58
2023/11/22 03:56:30;;;;;;;0.30;0.30;;;;;;;3.99;100.00;100254.09;5093226;28;20545;-58
2023/11/22 03:58:58;;;;;;;0.40;0.40;;;;;;;3.91;100.00;100265.56;5092774;28;20168;-58
2023/11/22 04:01:26;;;;;;;0.50;0.50;;;;;;;3.99;100.00;100265.53;5095553;28;20074;-58
2023/11/22 04:03:53;;;;;;;0.50;0.50;;;;;;;3.96;100.00;100260.56;5095769;28;20448;-58
2023/11/22 04:06:21;;;;;;;0.50;0.50;;;;;;;3.84;100.00;100280.53;5097521;28;20413;-59
2023/11/22 04:08:49;;;;;;;0.50;0.50;;;;;;;3.88;100.00;100276.53;5083110;28;20056;-59
2023/11/22 04:11:16;;;;;;;0.32;0.32;;;;;;;3.83;100.00;100278.88;5091298;28;20133;-59
2023/11/22 04:13:43;;;;;;;0.50;0.50;;;;;;;3.82;100.00;100266.59;5093053;28;20047;-58
2023/11/22 04:16:12;;;;;;;0.50;0.50;;;;;;;3.90;100.00;100285.16;5092825;28;20497;-58
2023/11/22 04:18:39;;;;;;;0.45;0.45;;;;;;;3.88;100.00;100281.84;5095324;28;20405;-58
2023/11/22 04:21:06;;;;;;;0.50;0.50;;;;;;;3.74;100.00;100287.88;5092821;28;20429;-59
2023/11/22 04:23:33;;;;;;;0.30;0.30;;;;;;;3.78;100.00;100291.84;5094596;28;20044;-58
2023/11/22 04:26:02;;;;;;;0.47;0.47;;;;;;;3.55;100.00;100286.47;5093709;28;20085;-58
2023/11/22 04:28:29;;;;;;;0.50;0.50;;;;;;;3.61;100.00;100283.94;5093910;28;20063;-58
2023/11/22 04:30:56;;;;;;;0.50;0.50;;;;;;;3.56;100.00;100283.63;5094703;28;20056;-60
2023/11/22 04:33:29;;;;;;;0.50;0.50;;;;;;;3.53;100.00;100293.75;5094584;28;20036;-59
2023/11/22 04:35:57;;;;;;;0.57;0.57;;;;;;;3.52;100.00;100308.84;5087884;28;20047;-59
2023/11/22 04:38:25;;;;;;;0.63;0.63;;;;;;;3.51;100.00;100317.78;5084410;28;20047;-59
2023/11/22 04:40:52;;;;;;;0.47;0.47;;;;;;;3.50;100.00;100325.91;5089215;28;20073;-59
2023/11/22 04:43:21;;;;;;;0.50;0.50;;;;;;;3.45;100.00;100331.72;5096198;28;20039;-59
2023/11/22 04:45:48;;;;;;;0.50;0.50;;;;;;;3.37;100.00;100337.84;5087855;28;20466;-59
2023/11/22 04:48:15;;;;;;;0.57;0.57;;;;;;;3.45;100.00;100339.66;5093547;28;20039;-59
2023/11/22 04:50:42;;;;;;;0.43;0.43;;;;;;;3.45;100.00;100344.97;5087331;28;20505;-59
2023/11/22 04:53:11;;;;;;;0.60;0.60;;;;;;;3.48;100.00;100355.22;5089238;28;20044;-59
2023/11/22 04:55:38;;;;;;;0.50;0.50;;;;;;;3.43;100.00;100352.25;5092090;28;20071;-59
2023/11/22 04:58:05;;;;;;;0.45;0.45;;;;;;;3.42;100.00;100362.03;5089389;28;20126;-59
2023/11/22 05:00:34;;;;;;;0.55;0.55;;;;;;;3.44;100.00;100360.06;5091692;28;20055;-59
2023/11/22 05:03:01;;;;;;;0.60;0.60;;;;;;;3.30;100.00;100359.91;5095313;28;20075;-59
2023/11/22 05:05:28;;;;;;;0.50;0.50;;;;;;;3.25;100.00;100363.03;5097493;28;20047;-59
2023/11/22 05:07:55;;;;;;;0.50;0.50;;;;;;;3.15;100.00;100360.56;5093994;28;20044;-59
2023/11/22 05:10:23;;;;;;;0.52;0.52;;;;;;;3.36;100.00;100356.56;5090130;28;20578;-59
2023/11/22 05:12:50;;;;;;;0.52;0.52;;;;;;;3.20;100.00;100357.44;5095232;28;20486;-59
2023/11/22 05:15:17;;;;;;;0.60;0.60;;;;;;;3.06;100.00;100350.97;5091736;28;20132;-59
2023/11/22 05:17:46;;;;;;;0.50;0.50;;;;;;;3.19;100.00;100345.16;5096212;28;20052;-59
2023/11/22 05:20:13;;;;;;;0.52;0.52;;;;;;;3.02;100.00;100342.53;5095127;28;20501;-59
2023/11/22 05:22:40;;;;;;;0.50;0.50;;;;;;;3.08;100.00;100348.97;5094942;28;20104;-59
2023/11/22 05:25:07;;;;;;;0.60;0.60;;;;;;;3.06;100.00;100345.66;5094659;28;20051;-59
2023/11/22 05:27:35;;;;;;;0.60;0.60;;;;;;;2.94;100.00;100353.09;5096492;28;20036;-59
2023/11/22 05:30:02;;;;;;;0.60;0.60;;;;;;;2.88;100.00;100337.88;5087558;28;20642;-59
2023/11/22 05:32:30;;;;;;;0.50;0.50;;;;;;;2.84;100.00;100348.97;5093893;28;20093;-59
2023/11/22 05:34:59;;;;;;;0.60;0.60;;;;;;;2.83;100.00;100355.28;5092280;28;20058;-59
2023/11/22 05:37:26;;;;;;;0.50;0.50;;;;;;;2.68;100.00;100363.84;5095787;28;20134;-59
2023/11/22 05:39:53;;;;;;;0.60;0.60;;;;;;;2.60;100.00;100366.50;5097758;28;20543;-59
2023/11/22 05:42:20;;;;;;;0.60;0.60;;;;;;;2.38;100.00;100374.03;5100060;28;20059;-59
2023/11/22 05:44:49;;;;;;;0.45;0.45;;;;;;;2.16;100.00;100370.16;5094625;27;20776;-59
2023/11/22 05:47:18;;;;;;;0.60;0.60;;;;;;;2.01;100.00;100381.50;5098141;28;20048;-59
2023/11/22 05:49:45;;;;;;;0.55;0.55;;;;;;;1.89;100.00;100405.56;5099321;28;20047;-59
2023/11/22 05:52:14;;;;;;;0.50;0.50;;;;;;;1.79;100.00;100402.22;5096542;28;20505;-59
2023/11/22 05:54:41;;;;;;;0.50;0.50;;;;;;;1.72;100.00;100409.09;5098992;28;20396;-59
2023/11/22 05:57:09;;;;;;;0.55;0.55;;;;;;;1.72;100.00;100414.41;5094503;28;20054;-59
2023/11/22 05:59:37;;;;;;;0.50;0.50;;;;;;;1.67;100.00;100411.41;5096591;27;20672;-59
2023/11/22 06:02:05;;;;;;;0.70;0.70;;;;;;;1.62;100.00;100416.31;5083830;27;20051;-59
2023/11/22 06:04:32;;;;;;;0.60;0.60;;;;;;;1.67;100.00;100427.25;5086050;27;20149;-59
2023/11/22 06:06:59;;;;;;;0.70;0.70;;;;;;;1.61;100.00;100419.97;5092886;28;20598;-59
2023/11/22 06:09:28;;;;;;;0.60;0.60;;;;;;;1.62;100.00;100421.59;5090626;28;20055;-58
2023/11/22 06:11:55;;;;;;;0.70;0.70;;;;;;;1.65;100.00;100423.97;5086205;28;20046;-58
2023/11/22 06:14:22;;;;;;;0.60;0.60;;;;;;;1.65;100.00;100413.38;5084445;28;20046;-59
2023/11/22 06:16:49;;;;;;;0.60;0.60;;;;;;;1.61;100.00;100430.53;5092378;28;20049;-58
2023/11/22 06:19:17;;;;;;;0.50;0.50;;;;;;;1.78;100.00;100434.94;5080993;28;20065;-60
2023/11/22 06:21:45;;;;;;;0.55;0.55;;;;;;;1.85;100.00;100438.63;5082482;27;20117;-60
2023/11/22 06:24:15;;;;;;;0.50;0.50;;;;;;;1.67;100.00;100438.69;5094398;28;20321;-58
2023/11/22 06:26:45;;;;;;;0.63;0.63;;;;;;;1.74;100.00;100433.59;5097989;28;20044;-59
2023/11/22 06:29:13;;;;;;;0.60;0.60;;;;;;;1.50;100.00;100427.16;5098228;27;20058;-58
2023/11/22 06:31:40;;;;;;;0.50;0.50;;;;;;;1.42;100.00;100428.91;5090137;28;20051;-58
2023/11/22 06:34:07;;;;;;;0.57;0.57;;;;;;;1.39;100.00;100426.56;5094360;28;20051;-60
2023/11/22 06:36:35;;;;;;;0.60;0.60;;;;;;;1.29;100.00;100426.66;5090652;28;20043;-58
2023/11/22 06:39:04;;;;;;;0.52;0.52;;;;;;;1.19;100.00;100423.28;5095708;28;20051;-58
2023/11/22 06:41:33;;;;;;;0.63;0.63;;;;;;;1.06;100.00;100426.31;5090956;28;20142;-60
2023/11/22 06:44:08;;;;;;;0.60;0.60;;;;;;;1.07;100.00;100433.22;5094055;28;20135;-58
2023/11/22 06:46:37;;;;;;;0.60;0.60;;;;;;;0.84;100.00;100433.69;5100427;28;20332;-58
2023/11/22 06:49:05;;;;;;;0.60;0.60;;;;;;;0.91;100.00;100435.72;5099320;28;20131;-58
2023/11/22 06:51:32;;;;;;;0.60;0.60;;;;;;;0.96;100.00;100441.38;5095596;28;20047;-61
2023/11/22 06:53:59;;;;;;;0.68;0.68;;;;;;;0.86;100.00;100446.72;5092486;28;20089;-58
2023/11/22 06:56:31;;;;;;;0.50;0.50;;;;;;;0.82;100.00;100448.00;5099632;27;20130;-61
2023/11/22 06:58:58;;;;;;;0.40;0.40;;;;;;;0.77;100.00;100447.63;5086577;28;20039;-60
2023/11/22 07:01:27;;;;;;;0.57;0.57;;;;;;;0.66;100.00;100451.31;5090288;28;20165;-60
2023/11/22 07:03:54;;;;;;;0.60;0.60;;;;;;;0.48;100.00;100451.28;5091721;28;20036;-59
2023/11/22 07:06:22;;;;;;;0.70;0.70;;;;;;;0.47;100.00;100454.88;5097885;28;20043;-59
2023/11/22 07:08:50;;;;;;;0.63;0.63;;;;;;;0.64;100.00;100451.44;5093668;28;20071;-59
2023/11/22 07:11:24;;;;;;;0.63;0.63;;;;;;;0.71;100.00;100461.44;5093155;28;20506;-60
2023/11/22 07:13:52;;;;;;;0.65;0.65;;;;;;;0.67;100.00;100466.16;5097849;28;20073;-58
2023/11/22 07:16:20;;;;;;;0.63;0.63;;;;;;;0.67;100.00;100460.06;5099933;28;20046;-58
2023/11/22 07:18:48;;;;;;;0.68;0.68;;;;;;;0.64;100.00;100464.63;5095167;28;20105;-59
2023/11/22 07:21:16;;;;;;;0.73;0.73;;;;;;;0.55;100.00;100452.34;5095971;28;20739;-60
2023/11/22 07:23:45;;;;;;;0.50;0.50;;;;;;;0.60;100.00;100454.53;5096845;28;20887;-60
2023/11/22 07:26:14;;;;;;;0.55;0.55;;;;;;;0.70;100.00;100451.84;5096402;28;20079;-58
2023/11/22 07:28:43;;;;;;;0.50;0.50;;;;;;;0.68;100.00;100445.91;5100146;28;20047;-58
2023/11/22 07:31:11;;;;;;;0.60;0.60;;;;;;;0.69;100.00;100448.38;5097665;28;20040;-58
2023/11/22 07:33:39;;;;;;;0.57;0.57;;;;;;;0.38;100.00;100455.78;5096046;28;20086;-58
2023/11/22 07:36:09;;;;;;;0.60;0.60;;;;;;;0.77;100.00;100460.81;5098191;28;20222;-58
2023/11/22 07:38:37;;;;;;;0.60;0.60;;;;;;;0.84;100.00;100456.59;5087991;28;20098;-58
2023/11/22 07:41:04;;;;;;;0.70;0.70;;;;;;;0.95;100.00;100466.97;5097422;28;20052;-58
2023/11/22 07:43:31;;;;;;;0.63;0.63;;;;;;;0.98;100.00;100464.03;5098412;28;20047;-58
2023/11/22 07:46:01;;;;;;;0.77;0.77;;;;;;;0.88;100.00;100463.25;5095684;28;20062;-58
2023/11/22 07:48:28;;;;;;;0.80;0.80;;;;;;;0.91;100.00;100473.50;5098290;28;20040;-58
2023/11/22 07:50:56;;;;;;;0.70;0.70;;;;;;;0.71;100.00;100475.44;5093769;28;20043;-58
2023/11/22 07:53:29;;;;;;;0.70;0.70;;;;;;;0.77;100.00;100477.47;5097849;28;20134;-60
2023/11/22 07:55:56;;;;;;;0.75;0.75;;;;;;;0.78;100.00;100475.69;5093329;28;20453;-60
2023/11/22 07:58:23;;;;;;;0.80;0.80;;;;;;;0.91;100.00;100484.06;5096490;28;20058;-60
2023/11/22 08:00:51;;;;;;;0.85;0.85;;;;;;;1.81;100.00;100492.78;5091544;28;20536;-58
2023/11/22 08:03:23;;;;;;;0.63;0.63;;;;;;;2.08;98.89;100499.72;5092924;28;20143;-58
2023/11/22 08:05:52;;;;;;;0.65;0.65;;;;;;;2.00;100.00;100502.34;5100289;28;20146;-60
2023/11/22 08:08:20;;;;;;;0.70;0.70;;;;;;;2.34;96.52;100505.00;5087856;28;20842;-58
2023/11/22 08:10:51;;;;;;;0.70;0.70;;;;;;;2.94;94.45;100516.47;5091596;28;20047;-59
2023/11/22 08:13:22;;;;;;;0.60;0.60;;;;;;;3.56;91.59;100516.91;5096945;28;20129;-58
2023/11/22 08:15:49;;;;;;;0.60;0.60;;;;;;;4.30;85.45;100522.16;5088505;28;20047;-58
2023/11/22 08:18:17;;;;;;;0.60;0.60;;;;;;;4.30;85.15;100524.81;5090353;28;20047;-58
2023/11/22 08:20:44;;;;;;;0.60;0.60;;;;;;;4.35;83.26;100535.75;5094529;28;20044;-58
2023/11/22 08:23:12;;;;;;;0.55;0.55;;;;;;;4.32;83.92;100541.41;5089287;27;20073;-58
2023/11/22 08:25:39;;;;;;;0.50;0.50;;;;;;;3.77;85.68;100542.94;5096070;27;20736;-58
2023/11/22 08:28:12;;;;;;;0.70;0.70;;;;;;;2.99;89.04;100541.47;5095922;28;20161;-60
2023/11/22 08:30:40;;;;;;;0.60;0.60;;;;;;;3.96;86.98;100539.09;5098278;28;20652;-59
2023/11/22 08:33:08;;;;;;;0.70;0.70;;;;;;;4.53;85.74;100533.69;5093688;28;20116;-58
2023/11/22 08:35:35;;;;;;;0.63;0.63;;;;;;;3.88;81.68;100531.16;5097413;28;20475;-60
2023/11/22 08:38:08;;;;;;;0.40;0.40;;;;;;;4.86;79.27;100530.91;5092568;28;20051;-59
2023/11/22 08:40:36;;;;;;;0.60;0.60;;;;;;;5.99;74.60;100518.81;5092655;28;20067;-57
2023/11/22 08:43:04;;;;;;;0.40;0.40;;;;;;;6.66;68.31;100510.81;5097070;28;20047;-59
2023/11/22 08:45:34;;;;;;;0.52;0.52;;;;;;;6.11;69.01;100493.44;5096932;28;20552;-59
2023/11/22 08:48:02;;;;;;;0.50;0.50;;;;;;;6.60;67.07;100486.72;5094559;28;20079;-59
2023/11/22 08:50:30;;;;;;;0.50;0.50;;;;;;;6.73;67.10;100481.56;5094152;28;20040;-59
2023/11/22 08:52:57;;;;;;;0.40;0.40;;;;;;;6.78;67.26;100481.00;5093026;28;20036;-60
2023/11/22 08:55:25;;;;;;;0.30;0.30;;;;;;;6.88;63.79;100484.19;5088611;28;20940;-60
2023/11/22 08:57:52;;;;;;;0.30;0.30;;;;;;;6.39;64.33;100484.78;5094767;28;20113;-60
2023/11/22 09:00:22;;;;;;;0.40;0.40;;;;;;;7.13;61.43;100488.16;5096588;28;20086;-60
2023/11/22 09:02:50;;;;;;;0.52;0.52;;;;;;;6.78;60.71;100503.13;5092222;28;20480;-59
2023/11/22 09:05:19;;;;;;;0.40;0.40;;;;;;;5.55;62.09;100503.56;5098324;28;20051;-59
2023/11/22 09:07:46;;;;;;;0.50;0.50;;;;;;;6.67;62.40;100504.44;5097905;28;20047;-59
2023/11/22 09:10:14;;;;;;;0.40;0.40;;;;;;;6.81;60.40;100509.94;5100644;28;20048;-60
2023/11/22 09:12:42;;;;;;;0.40;0.40;;;;;;;6.63;58.62;100519.13;5102856;28;20424;-60
2023/11/22 09:15:11;;;;;;;0.40;0.40;;;;;;;7.09;56.15;100529.56;5102265;27;20048;-60
2023/11/22 09:17:43;;;;;;;0.40;0.40;;;;;;;6.48;56.84;100527.13;5100670;28;20549;-58
2023/11/22 09:20:12;;;;;;;0.50;0.50;;;;;;;6.59;55.35;100538.34;5103083;28;20314;-58
2023/11/22 09:22:45;;;;;;;0.43;0.43;;;;;;;6.65;54.06;100548.28;5101080;28;20043;-58
2023/11/22 09:25:12;;;;;;;0.50;0.50;;;;;;;5.65;54.65;100570.66;5098235;28;20055;-58
2023/11/22 09:27:40;;;;;;;0.50;0.50;;;;;;;5.80;54.44;100576.84;5102844;28;20123;-58
2023/11/22 09:30:17;;;;;;;0.40;0.40;;;;;;;5.94;54.23;100572.63;5100561;28;20504;-59
2023/11/22 09:32:44;;;;;;;0.57;0.57;;;;;;;6.12;52.25;100574.94;5095180;28;20558;-58
2023/11/22 09:35:13;;;;;;;0.50;0.50;;;;;;;6.08;54.58;100580.81;5098804;28;20081;-58
2023/11/22 09:37:41;;;;;;;0.60;0.60;;;;;;;5.87;52.80;100586.78;5100775;28;20403;-58
2023/11/22 09:40:09;;;;;;;0.50;0.50;;;;;;;6.59;51.79;100592.47;5098292;28;20044;-58
2023/11/22 09:42:36;;;;;;;0.60;0.60;;;;;;;6.56;51.87;100608.78;5104696;27;20766;-58
2023/11/22 09:45:04;;;;;;;0.50;0.50;;;;;;;6.37;52.36;100606.69;5094583;28;20036;-58
2023/11/22 09:47:33;;;;;;;0.50;0.50;;;;;;;6.75;52.43;100593.28;5102603;27;20032;-59
2023/11/22 09:50:00;;;;;;;0.50;0.50;;;;;;;6.10;52.95;100582.28;5099440;28;20374;-58
2023/11/22 09:52:28;;;;;;;0.30;0.30;;;;;;;5.43;56.99;100574.13;5089923;28;20043;-58
2023/11/22 09:54:56;;;;;;;0.45;0.45;;;;;;;6.26;53.58;100574.16;5094837;28;20711;-58
2023/11/22 09:57:23;;;;;;;0.40;0.40;;;;;;;6.51;53.83;100573.06;5099337;28;20044;-58
2023/11/22 09:59:52;;;;;;;0.60;0.60;;;;;;;6.75;52.45;100587.97;5089077;27;20117;-58
2023/11/22 10:02:20;;;;;;;0.40;0.40;;;;;;;6.03;53.75;100592.81;5097172;27;20081;-58
2023/11/22 10:04:47;;;;;;;0.40;0.40;;;;;;;6.48;53.63;100579.59;5097167;28;20050;-58
2023/11/22 10:07:15;;;;;;;0.40;0.40;;;;;;;6.52;51.98;100572.91;5099705;28;20055;-58
2023/11/22 10:09:44;;;;;;;0.40;0.40;;;;;;;6.38;52.55;100577.19;5093515;28;20051;-58
2023/11/22 10:12:13;;;;;;;0.40;0.40;;;;;;;6.65;51.91;100570.41;5109669;27;20044;-58
2023/11/22 10:14:40;;;;;;;0.40;0.40;;;;;;;6.81;51.97;100564.03;5099871;28;20155;-58
2023/11/22 10:17:08;;;;;;;0.50;0.50;;;;;;;6.68;51.10;100554.03;5100833;28;20201;-59
2023/11/22 10:19:35;;;;;;;0.60;0.60;;;;;;;6.80;51.54;100559.75;5097933;28;20378;-58
2023/11/22 10:22:04;;;;;;;0.40;0.40;;;;;;;6.32;52.21;100582.44;5097692;28;20093;-58
2023/11/22 10:24:31;;;;;;;0.60;0.60;;;;;;;5.92;51.80;100589.75;5091761;28;21262;-58
2023/11/22 10:27:00;;;;;;;0.45;0.45;;;;;;;5.81;52.51;100578.47;5094918;28;20397;-59
2023/11/22 10:29:27;;;;;;;0.40;0.40;;;;;;;5.68;54.13;100580.09;5093749;28;20047;-60
2023/11/22 10:31:54;;;;;;;0.50;0.50;;;;;;;5.45;54.87;100585.41;5097778;28;20115;-60
2023/11/22 10:34:22;;;;;;;0.50;0.50;;;;;;;5.43;54.70;100584.75;5094252;27;20518;-60
2023/11/22 10:36:49;;;;;;;0.50;0.50;;;;;;;5.10;55.51;100576.97;5094510;28;20047;-59
2023/11/22 10:39:20;;;;;;;0.45;0.45;;;;;;;5.24;55.87;100568.25;5094665;28;20553;-59
2023/11/22 10:41:47;;;;;;;0.60;0.60;;;;;;;5.52;56.48;100559.78;5094291;28;20047;-59
2023/11/22 10:44:18;;;;;;;0.43;0.43;;;;;;;5.55;54.93;100567.41;5100985;28;20130;-59
2023/11/22 10:46:45;;;;;;;0.50;0.50;;;;;;;5.71;55.47;100572.56;5099553;27;20477;-59
2023/11/22 10:49:12;;;;;;;0.40;0.40;;;;;;;5.66;55.18;100582.94;5098906;28;20093;-59
2023/11/22 10:51:41;;;;;;;0.50;0.50;;;;;;;5.41;54.95;100569.78;5100277;28;20729;-59
2023/11/22 10:54:09;;;;;;;0.57;0.57;;;;;;;5.89;54.77;100558.13;5087804;28;20051;-59
2023/11/22 10:56:38;;;;;;;0.60;0.60;;;;;;;5.90;54.85;100554.50;5097062;28;20546;-59
2023/11/22 10:59:07;;;;;;;0.30;0.30;;;;;;;5.69;54.33;100563.97;5087807;28;20063;-60
2023/11/22 11:01:36;;;;;;;0.40;0.40;;;;;;;5.23;56.06;100552.47;5094415;28;20049;-59
2023/11/22 11:04:06;;;;;;;0.40;0.40;;;;;;;5.54;55.57;100552.41;5095777;28;20105;-59
2023/11/22 11:06:34;;;;;;;0.40;0.40;;;;;;;5.33;56.34;100561.88;5094121;28;20054;-59
2023/11/22 11:09:05;;;;;;;0.40;0.40;;;;;;;4.84;56.11;100559.47;5091525;27;20498;-59
2023/11/22 11:11:33;;;;;;;0.50;0.50;;;;;;;5.01;56.09;100560.22;5093985;27;20544;-58
2023/11/22 11:14:00;;;;;;;0.43;0.43;;;;;;;5.07;54.66;100562.19;5099070;28;20052;-60
2023/11/22 11:16:28;;;;;;;0.50;0.50;;;;;;;5.06;58.09;100562.34;5096803;28;20198;-59
2023/11/22 11:18:56;;;;;;;0.50;0.50;;;;;;;5.46;55.70;100573.75;5096663;28;20305;-59
2023/11/22 11:21:24;;;;;;;0.40;0.40;;;;;;;5.01;56.68;100578.81;5091219;28;20051;-59
2023/11/22 11:23:52;;;;;;;0.50;0.50;;;;;;;4.91;56.62;100587.00;5095174;28;20045;-59
2023/11/22 11:26:21;;;;;;;0.50;0.50;;;;;;;5.02;56.30;100592.94;5092521;28;20047;-58
2023/11/22 11:28:51;;;;;;;0.50;0.50;;;;;;;5.07;55.51;100585.28;5088837;28;20044;-58
2023/11/22 11:31:18;;;;;;;0.40;0.40;;;;;;;4.90;54.22;100579.22;5090747;28;20700;-59